Time;durP1;ratioP1;P1;durP2;ratioP2;P2;SDS_P1;SDS_P2;PMS_P1;PMS_P2;Temp;Humidity;BMP_temperature;BMP_pressure;BME280_temperature;BME280_humidity;BME280_pressure;Samples;Min_cycle;Max_cycle;Signal;HPM_P1;HPM_P2
2021/06/10 05:30:08;;;;;;;8.83;7.92;;;;;;;18.21;60.27;100481.25;1582033;84;26724;31
2021/06/10 05:32:35;;;;;;;10.70;6.53;;;;;;;18.38;60.27;100477.33;1607513;87;25743;-66
2021/06/10 05:35:03;;;;;;;9.70;7.30;;;;;;;18.53;60.03;100472.96;1583643;86;28135;-64
2021/06/10 05:37:29;;;;;;;11.93;9.60;;;;;;;18.66;59.72;100476.34;1581594;88;25891;-65
2021/06/10 05:39:55;;;;;;;10.90;8.33;;;;;;;18.80;59.67;100477.25;1565545;89;26602;-65
2021/06/10 05:42:22;;;;;;;9.88;7.58;;;;;;;18.97;59.65;100470.56;1582143;88;25827;-65
2021/06/10 05:44:49;;;;;;;9.60;6.55;;;;;;;19.14;59.44;100474.22;1581996;88;25902;-65
2021/06/10 05:47:16;;;;;;;14.93;6.05;;;;;;;19.31;59.09;100475.72;1583915;88;27866;-67
2021/06/10 05:49:46;;;;;;;10.80;7.10;;;;;;;19.49;58.74;100472.49;1601581;87;26701;-65
2021/06/10 05:52:12;;;;;;;10.82;6.90;;;;;;;19.68;58.49;100477.94;1605383;87;25898;-66
2021/06/10 05:54:39;;;;;;;8.83;6.90;;;;;;;19.90;58.22;100474.17;1614673;87;25901;-67
2021/06/10 05:57:08;;;;;;;8.55;6.60;;;;;;;20.08;57.59;100475.25;1612997;87;25840;-65
2021/06/10 05:59:35;;;;;;;10.05;5.83;;;;;;;20.24;57.15;100477.05;1583262;87;27342;-65
2021/06/10 06:02:01;;;;;;;16.60;10.32;;;;;;;20.44;56.56;100476.36;1611629;87;27184;-66
2021/06/10 06:04:29;;;;;;;8.33;6.60;;;;;;;20.65;56.47;100472.55;1603189;87;25815;-66
2021/06/10 06:06:55;;;;;;;8.33;5.62;;;;;;;20.85;56.00;100474.55;1612231;87;25756;-66
2021/06/10 06:09:22;;;;;;;11.12;5.67;;;;;;;21.06;55.36;100478.70;1607619;87;25901;-66
2021/06/10 06:11:51;;;;;;;12.18;10.38;;;;;;;21.24;55.01;100461.81;1614439;87;27408;-66
2021/06/10 06:14:23;;;;;;;7.87;5.53;;;;;;;21.47;54.84;100465.03;1609095;87;25823;-66
2021/06/10 06:16:46;;;;;;;8.15;6.00;;;;;;;21.65;53.96;100469.30;1608254;87;25875;-66
2021/06/10 06:19:13;;;;;;;8.00;4.85;;;;;;;21.83;53.83;100470.84;1609412;87;25756;-66
2021/06/10 06:21:43;;;;;;;6.28;4.97;;;;;;;22.07;53.42;100462.55;1614577;87;25715;-66
2021/06/10 06:24:11;;;;;;;5.20;4.70;;;;;;;22.32;52.76;100460.55;1609667;87;27400;-65
2021/06/10 06:26:38;;;;;;;9.90;4.47;;;;;;;22.48;51.91;100454.15;1600513;87;25840;-65
2021/06/10 06:29:05;;;;;;;10.88;5.78;;;;;;;22.67;51.44;100454.42;1607913;86;25878;-65
2021/06/10 06:31:32;;;;;;;8.25;5.75;;;;;;;22.84;51.16;100463.95;1635810;86;25822;-66
2021/06/10 06:33:59;;;;;;;7.03;4.72;;;;;;;23.01;50.62;100459.66;1636137;86;25772;-68
2021/06/10 06:36:25;;;;;;;8.68;5.53;;;;;;;23.15;50.22;100464.45;1628392;86;27417;-66
2021/06/10 06:38:52;;;;;;;8.80;4.67;;;;;;;23.31;49.89;100464.11;1628311;86;25743;-66
2021/06/10 06:41:19;;;;;;;7.20;5.75;;;;;;;23.42;48.70;100461.35;1630960;85;25939;-67
2021/06/10 06:43:45;;;;;;;7.08;5.20;;;;;;;23.50;48.62;100469.84;1611014;86;26881;-67
2021/06/10 06:46:12;;;;;;;7.35;5.03;;;;;;;23.63;48.29;100469.66;1623980;87;25961;-67
2021/06/10 06:48:39;;;;;;;11.43;4.30;;;;;;;23.79;47.98;100475.38;1624241;87;27317;-66
2021/06/10 06:51:09;;;;;;;9.43;4.72;;;;;;;23.92;47.45;100471.64;1625338;86;25812;-67
2021/06/10 06:53:36;;;;;;;5.78;4.35;;;;;;;24.09;47.23;100472.80;1622555;86;25903;-66
2021/06/10 06:56:04;;;;;;;6.53;4.40;;;;;;;24.26;46.58;100474.73;1634581;85;25805;-66
2021/06/10 06:58:31;;;;;;;8.25;4.28;;;;;;;24.33;46.26;100470.59;1629074;85;25832;-66
2021/06/10 07:00:58;;;;;;;8.30;4.22;;;;;;;24.47;46.02;100464.80;1636679;85;28212;-65
2021/06/10 07:03:25;;;;;;;5.20;4.25;;;;;;;24.58;45.86;100468.36;1626572;86;25751;-66
2021/06/10 07:05:53;;;;;;;5.65;3.95;;;;;;;24.79;45.75;100464.70;1634908;86;25663;-67
2021/06/10 07:08:20;;;;;;;5.92;4.42;;;;;;;24.98;45.52;100465.61;1623803;86;26214;-67
2021/06/10 07:10:53;;;;;;;6.05;4.60;;;;;;;25.18;44.88;100459.56;1636361;86;26197;-68
2021/06/10 07:13:15;;;;;;;11.85;6.78;;;;;;;25.38;44.53;100463.23;1611468;87;29490;-66
2021/06/10 07:15:41;;;;;;;5.53;4.12;;;;;;;25.60;44.42;100468.79;1608698;87;25985;-66
2021/06/10 07:18:08;;;;;;;5.50;3.30;;;;;;;25.80;43.56;100467.64;1583689;89;26626;-66
2021/06/10 07:20:34;;;;;;;4.10;3.80;;;;;;;25.96;42.28;100462.19;1582713;89;26420;-66
2021/06/10 07:23:01;;;;;;;6.80;3.70;;;;;;;26.03;42.71;100462.92;1596331;87;25839;-65
2021/06/10 07:25:27;;;;;;;5.95;4.30;;;;;;;26.23;42.40;100467.85;1606673;87;29615;-66
2021/06/10 07:27:54;;;;;;;7.47;3.95;;;;;;;26.45;42.00;100472.56;1605241;87;25937;-66
2021/06/10 07:30:22;;;;;;;6.33;4.47;;;;;;;26.65;41.56;100470.77;1618021;87;25868;-66
2021/06/10 07:32:49;;;;;;;5.00;3.72;;;;;;;26.84;41.12;100466.55;1606511;87;26692;-65
2021/06/10 07:35:21;;;;;;;9.00;3.95;;;;;;;27.01;40.86;100469.52;1579988;89;26017;-66
2021/06/10 07:37:44;;;;;;;4.50;3.92;;;;;;;27.24;40.98;100467.37;1617258;86;27907;-66
2021/06/10 07:40:12;;;;;;;6.75;3.33;;;;;;;27.48;40.74;100465.48;1607805;87;25923;-67
2021/06/10 07:42:39;;;;;;;11.15;5.87;;;;;;;27.78;40.27;100465.79;1610145;87;25917;-67
2021/06/10 07:45:08;;;;;;;5.00;3.40;;;;;;;28.01;39.65;100459.44;1604094;88;25834;-68
2021/06/10 07:47:35;;;;;;;5.87;3.52;;;;;;;28.14;39.05;100457.61;1609855;87;25852;-67
2021/06/10 07:50:01;;;;;;;5.47;4.03;;;;;;;28.34;39.19;100454.07;1592540;88;29557;-66
2021/06/10 07:52:28;;;;;;;5.55;3.45;;;;;;;28.65;39.11;100449.09;1598087;88;26156;-66
2021/06/10 07:54:55;;;;;;;6.97;3.98;;;;;;;28.97;38.35;100443.44;1596875;88;25810;-67
2021/06/10 07:57:21;;;;;;;5.53;3.42;;;;;;;29.21;38.01;100450.44;1597718;88;25912;-67
2021/06/10 07:59:47;;;;;;;3.98;3.65;;;;;;;29.49;37.76;100453.78;1592109;88;25815;-66
2021/06/10 08:02:14;;;;;;;4.83;3.47;;;;;;;29.72;37.52;100449.23;1601435;88;27374;-66
2021/06/10 08:04:41;;;;;;;4.05;2.75;;;;;;;29.92;36.72;100455.49;1605793;87;25779;-66
2021/06/10 08:07:09;;;;;;;5.08;3.85;;;;;;;29.99;35.66;100453.91;1610593;87;26102;-67
2021/06/10 08:09:36;;;;;;;9.18;4.08;;;;;;;30.00;35.53;100454.67;1602983;87;25911;-67
2021/06/10 08:12:05;;;;;;;5.83;3.45;;;;;;;29.94;35.10;100448.86;1595550;88;25792;-66
2021/06/10 08:14:32;;;;;;;4.17;3.35;;;;;;;30.08;34.87;100451.88;1575407;89;27438;-66
2021/06/10 08:16:58;;;;;;;4.62;3.17;;;;;;;30.17;34.50;100455.41;1584971;89;25955;-65
2021/06/10 08:19:26;;;;;;;5.03;2.70;;;;;;;30.21;33.95;100457.52;1575979;88;25905;-65
2021/06/10 08:21:52;;;;;;;4.65;2.90;;;;;;;30.28;33.89;100460.72;1589016;89;25890;-65
2021/06/10 08:24:19;;;;;;;4.67;2.60;;;;;;;30.31;33.16;100460.62;1582771;89;25960;-65
2021/06/10 08:26:47;;;;;;;3.12;2.60;;;;;;;30.33;33.13;100455.38;1557683;90;27393;-65
2021/06/10 08:29:13;;;;;;;2.95;2.55;;;;;;;30.51;33.29;100463.28;1547665;90;25924;-65
2021/06/10 08:31:40;;;;;;;3.60;2.70;;;;;;;30.75;32.90;100467.17;1563895;90;25918;-66
2021/06/10 08:34:07;;;;;;;2.75;2.50;;;;;;;31.05;32.44;100460.91;1568925;89;26442;-64
2021/06/10 08:36:33;;;;;;;5.70;2.80;;;;;;;31.23;31.66;100463.92;1564435;89;25947;-64
2021/06/10 08:39:00;;;;;;;4.35;2.55;;;;;;;31.40;31.53;100453.40;1549309;90;27335;-66
2021/06/10 08:41:28;;;;;;;6.15;2.60;;;;;;;31.61;31.26;100449.12;1556893;90;25960;-66
2021/06/10 08:43:58;;;;;;;2.92;2.72;;;;;;;31.82;30.88;100453.82;1554862;90;25976;-67
2021/06/10 08:46:27;;;;;;;4.70;2.50;;;;;;;32.02;30.80;100452.14;1557746;90;27871;-67
2021/06/10 08:48:54;;;;;;;2.47;2.27;;;;;;;32.30;30.29;100456.56;1554323;90;26590;-67
2021/06/10 08:51:21;;;;;;;3.33;2.60;;;;;;;32.54;29.79;100452.07;1566072;90;27343;-66
2021/06/10 08:53:50;;;;;;;2.90;2.42;;;;;;;32.78;29.45;100453.01;1563404;90;25805;-66
2021/06/10 08:56:18;;;;;;;5.22;3.08;;;;;;;33.02;29.07;100448.28;1567063;89;25940;-67
2021/06/10 08:58:46;;;;;;;3.15;2.85;;;;;;;33.21;29.17;100454.77;1597616;87;26253;-67
2021/06/10 09:01:14;;;;;;;7.28;3.35;;;;;;;33.35;28.41;100447.16;1596351;88;26455;-66
2021/06/10 09:03:42;;;;;;;2.83;2.55;;;;;;;33.29;28.39;100444.20;1595259;88;27403;-69
2021/06/10 09:06:17;;;;;;;4.58;3.17;;;;;;;33.36;28.52;100446.56;1596599;87;25828;-67
2021/06/10 09:08:45;;;;;;;5.67;2.60;;;;;;;33.47;28.18;100440.64;1596695;87;25665;-66
2021/06/10 09:11:19;;;;;;;4.42;2.12;;;;;;;33.13;27.56;100451.42;1595350;88;27388;-67
2021/06/10 09:13:58;;;;;;;2.27;2.17;;;;;;;33.03;27.39;100450.63;1600688;88;25717;-67
2021/06/10 09:16:34;;;;;;;2.52;2.30;;;;;;;33.45;27.87;100472.56;1598059;87;27335;-68
2021/06/10 09:19:09;;;;;;;3.75;2.50;;;;;;;33.45;27.87;100472.56;1601254;88;26156;-65
2021/06/10 09:21:48;;;;;;;8.00;2.40;;;;;;;33.42;27.32;100451.69;1594030;88;25858;-66
2021/06/10 09:24:31;;;;;;;3.47;2.15;;;;;;;33.60;27.27;100450.95;1592117;88;25893;-64
2021/06/10 09:27:12;;;;;;;3.70;2.30;;;;;;;33.77;26.05;100449.44;1597630;88;25772;-67
2021/06/10 09:29:50;;;;;;;2.52;2.30;;;;;;;33.75;26.35;100449.13;1593895;88;27402;-67
2021/06/10 09:32:27;;;;;;;4.62;1.92;;;;;;;33.75;26.35;100449.13;1597359;88;26584;-67
2021/06/10 09:35:08;;;;;;;8.50;2.77;;;;;;;33.70;25.83;100444.14;1606138;87;26603;-65
2021/06/10 09:37:39;;;;;;;2.12;1.92;;;;;;;33.34;25.45;100450.42;1604096;87;25766;-65
2021/06/10 09:40:16;;;;;;;3.15;2.20;;;;;;;32.72;25.14;100444.41;1606374;87;25941;-65
2021/06/10 09:42:44;;;;;;;3.45;2.00;;;;;;;32.11;25.44;100445.86;1597966;88;29555;-65
2021/06/10 09:45:15;;;;;;;4.47;2.65;;;;;;;31.83;26.53;100451.20;1604552;87;26526;-63
2021/06/10 09:47:47;;;;;;;3.05;2.55;;;;;;;32.04;26.74;100442.67;1601573;87;25846;-64
2021/06/10 09:50:46;;;;;;;3.72;2.33;;;;;;;32.49;27.24;100448.46;1615841;87;25770;-65
2021/06/10 09:53:17;;;;;;;;;;;;;;;32.43;26.10;100449.51;1605095;87;25705;-66
2021/06/10 09:56:00;;;;;;;3.77;2.30;;;;;;;31.90;25.52;100457.94;1595658;88;27976;-66
2021/06/10 09:58:36;;;;;;;2.77;2.12;;;;;;;31.39;25.92;100457.41;1596878;88;25766;-62
2021/06/10 10:01:20;;;;;;;1.85;1.72;;;;;;;31.00;27.42;100455.25;1564265;90;26101;-61
2021/06/10 10:03:50;;;;;;;3.37;2.10;;;;;;;31.05;27.94;100452.53;1553784;90;25955;-61
2021/06/10 10:06:24;;;;;;;4.45;2.22;;;;;;;30.84;27.33;100456.74;1555194;88;25908;-61
2021/06/10 10:08:57;;;;;;;3.02;2.00;;;;;;;30.73;28.18;100445.88;1613873;86;27336;-61
2021/06/10 10:11:26;;;;;;;5.17;2.22;;;;;;;30.87;27.85;100453.84;1600244;87;25984;-61
2021/06/10 10:13:56;;;;;;;2.52;2.12;;;;;;;30.48;27.66;100457.80;1614513;87;25741;-61
2021/06/10 10:16:31;;;;;;;4.17;2.50;;;;;;;29.96;27.90;100453.38;1603955;87;25950;-61
2021/06/10 10:18:59;;;;;;;5.00;2.08;;;;;;;29.79;28.53;100449.06;1605170;87;26057;-60
2021/06/10 10:21:30;;;;;;;2.55;2.35;;;;;;;29.99;29.08;100452.51;1607341;87;27906;-61
2021/06/10 10:24:07;;;;;;;2.47;1.90;;;;;;;30.27;29.11;100448.75;1614876;87;25847;-59
2021/06/10 10:26:36;;;;;;;4.83;2.30;;;;;;;30.61;29.68;100443.23;1601771;87;25808;-61
2021/06/10 10:29:06;;;;;;;4.35;2.25;;;;;;;31.02;28.59;100445.04;1609799;87;25820;-61
2021/06/10 10:31:35;;;;;;;2.85;1.62;;;;;;;31.20;28.01;100436.87;1603934;87;26566;-59
2021/06/10 10:34:02;;;;;;;2.60;2.27;;;;;;;30.87;27.75;100444.06;1601941;87;27388;-60
2021/06/10 10:36:36;;;;;;;6.65;2.58;;;;;;;30.34;27.43;100440.20;1598681;87;25749;-60
2021/06/10 10:39:09;;;;;;;6.10;4.08;;;;;;;29.81;27.96;100435.47;1600542;87;25929;-61
2021/06/10 10:41:55;;;;;;;9.25;2.90;;;;;;;29.33;28.50;100436.44;1595178;87;25993;-60
2021/06/10 10:44:29;;;;;;;7.60;2.70;;;;;;;28.96;29.24;100435.70;1609359;87;25995;-58
2021/06/10 10:47:11;;;;;;;4.35;2.30;;;;;;;29.08;29.88;100419.52;1601435;87;27920;-60
2021/06/10 10:49:48;;;;;;;2.33;2.12;;;;;;;29.49;29.94;100430.69;1592939;88;25979;-59
2021/06/10 10:52:21;;;;;;;2.20;2.00;;;;;;;29.86;29.88;100425.80;1597821;87;25908;-61
2021/06/10 10:54:51;;;;;;;2.72;1.70;;;;;;;30.13;28.64;100424.06;1603445;88;25825;-58
2021/06/10 10:57:45;;;;;;;3.50;1.87;;;;;;;30.36;28.27;100416.09;1598029;87;26595;-59
2021/06/10 11:00:13;;;;;;;2.00;1.65;;;;;;;30.43;28.28;100419.28;1607278;87;27494;-60
2021/06/10 11:02:50;;;;;;;4.90;2.05;;;;;;;30.58;28.33;100421.82;1619997;87;25758;-60
2021/06/10 11:05:31;;;;;;;3.67;1.80;;;;;;;30.79;27.84;100422.40;1580094;87;25999;-59
2021/06/10 11:07:58;;;;;;;3.42;1.82;;;;;;;31.02;27.26;100422.70;1602137;87;26562;-60
2021/06/10 11:10:52;;;;;;;1.52;1.37;;;;;;;31.21;26.53;100417.50;1619510;86;25995;-60
2021/06/10 11:13:28;;;;;;;2.72;1.40;;;;;;;31.36;25.89;100412.20;1597216;87;27313;-60
2021/06/10 11:16:04;;;;;;;2.67;1.95;;;;;;;31.59;25.91;100415.27;1599883;87;25933;-60
2021/06/10 11:18:52;;;;;;;2.25;1.57;;;;;;;31.84;25.88;100401.82;1595652;87;26203;-61
2021/06/10 11:21:44;;;;;;;1.75;1.60;;;;;;;31.96;25.61;100405.00;1597408;87;25925;-61
2021/06/10 11:24:19;;;;;;;2.25;1.65;;;;;;;31.93;25.89;100403.13;1607588;87;26424;-61
2021/06/10 11:27:00;;;;;;;2.00;1.70;;;;;;;32.09;25.60;100401.55;1596279;87;27385;-61
2021/06/10 11:29:29;;;;;;;3.45;1.90;;;;;;;32.07;25.46;100398.44;1601642;87;26563;-61
2021/06/10 11:32:25;;;;;;;4.83;2.08;;;;;;;32.24;25.84;100387.05;1612723;87;25858;-61
2021/06/10 11:34:53;;;;;;;3.67;1.65;;;;;;;32.31;25.75;100390.34;1611802;87;26525;-61
2021/06/10 11:37:23;;;;;;;3.35;1.60;;;;;;;32.39;25.76;100386.67;1603302;87;26596;-61
2021/06/10 11:39:51;;;;;;;2.55;1.60;;;;;;;32.41;25.53;100384.19;1603406;87;27447;-62
2021/06/10 11:42:22;;;;;;;2.05;1.85;;;;;;;32.41;25.08;100382.02;1598018;87;25913;-61
2021/06/10 11:44:48;;;;;;;3.47;1.57;;;;;;;32.33;25.20;100374.50;1606211;87;25907;-62
2021/06/10 11:47:27;;;;;;;5.87;3.20;;;;;;;32.37;25.44;100366.77;1603661;87;25761;-59
2021/06/10 11:49:54;;;;;;;5.60;2.60;;;;;;;32.47;25.76;100368.97;1607784;87;25912;-59
2021/06/10 11:52:22;;;;;;;3.25;2.20;;;;;;;32.67;25.44;100370.03;1607404;87;27386;-59
2021/06/10 11:55:06;;;;;;;4.47;2.00;;;;;;;32.69;24.94;100370.34;1592104;86;26276;-61
2021/06/10 11:57:34;;;;;;;3.15;2.30;;;;;;;32.57;24.95;100363.58;1606398;87;25897;-60
2021/06/10 12:00:10;;;;;;;4.03;1.80;;;;;;;32.56;25.31;100361.41;1607418;87;25930;-60
2021/06/10 12:02:39;;;;;;;4.67;2.22;;;;;;;32.71;25.40;100358.86;1618764;85;26600;-60
2021/06/10 12:05:12;;;;;;;3.27;2.00;;;;;;;33.01;25.11;100360.64;1600767;86;27336;-60
2021/06/10 12:07:39;;;;;;;3.50;2.12;;;;;;;33.17;25.09;100361.04;1614565;85;26016;-60
2021/06/10 12:10:10;;;;;;;2.55;1.80;;;;;;;33.34;24.78;100353.13;1611464;87;25945;-60
2021/06/10 12:12:42;;;;;;;3.83;2.87;;;;;;;33.51;24.34;100355.00;1585451;87;25833;-61
2021/06/10 12:15:19;;;;;;;5.85;1.70;;;;;;;33.61;24.26;100346.75;1639171;85;25983;-59
2021/06/10 12:17:52;;;;;;;2.67;1.83;;;;;;;33.76;23.85;100341.92;1635571;85;27564;-60
2021/06/10 12:20:23;;;;;;;4.05;1.90;;;;;;;33.69;23.70;100345.83;1630420;85;26634;-61
2021/06/10 12:22:50;;;;;;;3.50;1.70;;;;;;;33.69;23.70;100345.83;1628543;85;26239;-58
2021/06/10 12:25:25;;;;;;;1.80;1.55;;;;;;;33.55;23.29;100340.83;1635161;85;26143;-59
2021/06/10 12:27:55;;;;;;;11.83;2.50;;;;;;;33.55;23.35;100358.42;1631658;85;25740;-61
2021/06/10 12:30:35;;;;;;;3.65;2.22;;;;;;;33.32;23.50;100348.58;1610746;86;27496;-61
2021/06/10 12:33:20;;;;;;;3.27;1.70;;;;;;;32.97;23.82;100331.24;1605425;85;25817;-61
2021/06/10 12:35:50;;;;;;;2.00;1.80;;;;;;;32.97;24.04;100336.22;1612913;86;25961;-60
2021/06/10 12:38:21;;;;;;;2.67;1.80;;;;;;;32.84;23.74;100326.52;1620275;86;26699;-60
2021/06/10 12:40:48;;;;;;;2.65;1.80;;;;;;;32.51;23.43;100330.45;1632753;86;26212;-61
2021/06/10 12:43:21;;;;;;;2.90;1.82;;;;;;;32.22;23.45;100327.35;1623984;86;27321;-61
2021/06/10 12:45:47;;;;;;;1.60;1.50;;;;;;;32.11;23.95;100331.16;1599412;88;25875;-61
2021/06/10 12:48:23;;;;;;;3.25;1.98;;;;;;;32.24;23.63;100324.09;1616901;86;25942;-60
2021/06/10 12:50:50;;;;;;;2.52;2.00;;;;;;;32.29;23.31;100321.48;1625528;87;25885;-61
2021/06/10 12:53:18;;;;;;;4.28;1.75;;;;;;;32.21;23.43;100318.78;1622280;86;25732;-61
2021/06/10 12:55:45;;;;;;;1.80;1.70;;;;;;;32.00;23.38;100313.37;1610391;86;27307;-59
2021/06/10 12:58:16;;;;;;;7.47;2.10;;;;;;;31.62;23.67;100307.38;1583748;88;25918;-60
2021/06/10 13:00:43;;;;;;;5.40;2.15;;;;;;;31.28;24.06;100311.72;1583444;89;25614;-60
2021/06/10 13:03:10;;;;;;;3.17;1.60;;;;;;;31.01;24.67;100316.42;1571977;88;25963;-60
2021/06/10 13:05:38;;;;;;;2.70;2.02;;;;;;;31.01;24.86;100313.63;1605156;87;27056;-58
2021/06/10 13:08:05;;;;;;;3.20;1.65;;;;;;;31.09;24.92;100304.56;1641527;85;27156;-61
2021/06/10 13:10:44;;;;;;;3.25;1.70;;;;;;;31.17;24.74;100294.53;1637064;85;25952;-60
2021/06/10 13:13:15;;;;;;;4.47;2.00;;;;;;;31.22;24.63;100289.14;1644559;85;26246;-60
2021/06/10 13:15:43;;;;;;;3.47;1.80;;;;;;;31.25;25.22;100293.06;1633115;85;25919;-60
2021/06/10 13:18:13;;;;;;;1.98;1.77;;;;;;;31.49;25.27;100299.62;1644670;85;25846;-61
2021/06/10 13:21:04;;;;;;;3.87;1.37;;;;;;;31.51;24.88;100289.57;1651211;85;27324;-60
2021/06/10 13:23:34;;;;;;;1.80;1.60;;;;;;;31.49;24.72;100304.59;1621553;86;25925;-61
2021/06/10 13:26:21;;;;;;;1.65;1.55;;;;;;;31.46;24.86;100299.28;1584073;88;25936;-61
2021/06/10 13:29:04;;;;;;;5.03;1.95;;;;;;;31.60;24.88;100296.64;1613995;87;25816;-60
2021/06/10 13:31:39;;;;;;;4.58;1.50;;;;;;;31.64;24.22;100295.11;1615266;87;25878;-61
2021/06/10 13:34:09;;;;;;;;;;;;;;;31.68;24.31;100294.98;1609366;87;27992;-60
2021/06/10 13:36:54;;;;;;;1.87;1.40;;;;;;;31.87;24.43;100289.66;1604185;86;26703;-61
2021/06/10 13:39:12;;;;;;;1.60;1.50;;;;;;;32.07;24.04;100294.17;1595479;86;26025;-60
2021/06/10 13:41:40;;;;;;;1.80;1.50;;;;;;;32.14;23.52;100284.87;1595505;86;25778;-60
2021/06/10 13:44:10;;;;;;;5.50;2.00;;;;;;;32.26;23.45;100284.61;1596040;87;25948;-59
2021/06/10 13:46:37;;;;;;;1.57;1.40;;;;;;;32.35;23.29;100282.47;1599373;87;27380;-61
2021/06/10 13:49:04;;;;;;;6.25;2.05;;;;;;;32.45;23.53;100276.30;1595067;88;25987;-60
2021/06/10 13:51:31;;;;;;;3.25;1.60;;;;;;;32.56;23.63;100271.83;1579571;88;25933;-61
2021/06/10 13:53:58;;;;;;;2.45;1.62;;;;;;;32.64;23.07;100265.36;1615084;86;25755;-60
2021/06/10 13:56:27;;;;;;;1.45;1.10;;;;;;;32.67;23.02;100264.41;1611640;86;26705;-61
2021/06/10 13:58:54;;;;;;;2.17;1.30;;;;;;;32.70;23.06;100263.48;1575524;87;27414;-60
2021/06/10 14:01:20;;;;;;;3.10;1.40;;;;;;;32.70;23.10;100273.92;1611670;86;25959;-60
2021/06/10 14:03:47;;;;;;;4.80;1.67;;;;;;;32.69;23.13;100273.15;1609376;86;26631;-60
2021/06/10 14:06:15;;;;;;;5.87;1.70;;;;;;;32.73;23.02;100261.80;1623468;86;25799;-60
2021/06/10 14:08:42;;;;;;;;;;;;;;;32.73;22.94;100260.40;1628764;86;25918;-60
2021/06/10 14:11:12;;;;;;;2.87;1.50;;;;;;;32.65;22.72;100251.50;1623040;86;27445;-60
2021/06/10 14:13:40;;;;;;;2.37;2.10;;;;;;;32.44;22.55;100250.94;1624031;86;27112;-60
2021/06/10 14:16:09;;;;;;;2.58;1.55;;;;;;;32.25;23.19;100262.09;1617922;86;26078;-60
2021/06/10 14:18:35;;;;;;;2.10;1.60;;;;;;;32.21;22.82;100254.44;1614940;87;26530;-61
2021/06/10 14:21:02;;;;;;;4.25;1.52;;;;;;;32.11;22.59;100254.23;1628897;86;25801;-60
2021/06/10 14:23:28;;;;;;;1.72;1.10;;;;;;;31.97;22.41;100259.11;1600599;87;28126;-61
2021/06/10 14:25:54;;;;;;;1.90;1.50;;;;;;;31.72;22.36;100256.48;1621633;87;25961;-60
2021/06/10 14:28:21;;;;;;;1.30;1.20;;;;;;;31.51;22.61;100253.87;1618680;86;25866;-60
2021/06/10 14:31:12;;;;;;;3.15;1.37;;;;;;;31.28;22.92;100248.23;1614001;86;27815;-60
2021/06/10 14:33:18;;;;;;;4.05;1.40;;;;;;;31.12;22.90;100244.84;1605459;86;25850;-60
2021/06/10 14:35:45;;;;;;;2.85;1.22;;;;;;;30.98;23.19;100239.12;1616543;86;27318;-60
2021/06/10 14:38:12;;;;;;;3.95;1.60;;;;;;;30.91;23.18;100240.13;1609771;87;25873;-60
2021/06/10 14:40:40;;;;;;;2.75;1.55;;;;;;;30.74;23.61;100240.88;1609470;87;25868;-60
2021/06/10 14:43:07;;;;;;;2.77;1.30;;;;;;;30.69;23.96;100237.27;1612367;86;26047;-61
2021/06/10 14:45:37;;;;;;;4.72;1.25;;;;;;;30.68;23.99;100238.48;1608321;87;25837;-60
2021/06/10 14:48:06;;;;;;;2.42;1.30;;;;;;;30.66;24.05;100238.16;1598802;87;27331;-60
2021/06/10 14:50:32;;;;;;;;;;;;;;;30.65;23.64;100235.99;1617228;86;25797;-60
2021/06/10 14:52:58;;;;;;;1.45;1.37;;;;;;;30.43;23.19;100230.33;1615460;86;25899;-60
2021/06/10 14:55:27;;;;;;;3.58;1.77;;;;;;;30.28;23.60;100226.41;1610181;86;26480;-59
2021/06/10 14:57:56;;;;;;;3.22;1.42;;;;;;;30.24;23.69;100227.91;1625390;86;25955;-60
2021/06/10 15:00:23;;;;;;;1.82;1.22;;;;;;;30.20;23.77;100218.09;1606865;87;27335;-60
2021/06/10 15:02:50;;;;;;;3.08;1.30;;;;;;;30.16;23.65;100223.78;1611515;87;25833;-61
2021/06/10 15:05:17;;;;;;;3.33;1.60;;;;;;;30.08;23.88;100219.02;1603429;86;25903;-60
2021/06/10 15:07:44;;;;;;;2.98;1.25;;;;;;;30.02;23.97;100216.64;1604353;87;26676;-60
2021/06/10 15:10:11;;;;;;;5.97;1.60;;;;;;;30.04;24.46;100221.77;1604695;86;25675;-61
2021/06/10 15:12:38;;;;;;;4.90;1.70;;;;;;;30.09;24.73;100215.64;1607856;87;27278;-60
2021/06/10 15:15:06;;;;;;;1.47;1.37;;;;;;;30.02;24.28;100218.03;1618155;86;25861;-60
2021/06/10 15:17:33;;;;;;;5.03;2.17;;;;;;;29.96;24.37;100220.58;1610427;86;25882;-60
2021/06/10 15:19:59;;;;;;;4.05;1.30;;;;;;;29.91;24.80;100221.13;1608649;87;25694;-59
2021/06/10 15:22:27;;;;;;;3.10;1.40;;;;;;;29.89;24.67;100222.19;1619802;86;26624;-60
2021/06/10 15:24:53;;;;;;;2.37;1.77;;;;;;;29.87;24.59;100224.64;1633903;85;27904;-61
2021/06/10 15:27:19;;;;;;;1.30;1.20;;;;;;;29.86;24.47;100232.05;1610719;85;26338;-60
2021/06/10 15:29:46;;;;;;;3.37;1.57;;;;;;;29.70;24.46;100223.91;1601325;86;25770;-60
2021/06/10 15:32:12;;;;;;;3.95;1.60;;;;;;;29.59;24.61;100224.83;1601131;87;25886;-59
2021/06/10 15:34:39;;;;;;;4.12;1.50;;;;;;;29.44;24.71;100231.44;1624581;85;25930;-60
2021/06/10 15:37:09;;;;;;;1.60;1.30;;;;;;;29.24;24.60;100232.34;1645061;85;27303;-60
2021/06/10 15:39:36;;;;;;;4.83;1.67;;;;;;;29.08;24.77;100228.17;1645353;85;25913;-60
2021/06/10 15:42:06;;;;;;;1.47;1.37;;;;;;;29.00;25.02;100232.39;1645078;85;31207;-61
2021/06/10 15:44:35;;;;;;;;;;;;;;;28.91;25.40;100233.59;1645284;85;26467;-61
2021/06/10 15:47:02;;;;;;;8.15;2.50;;;;;;;28.87;25.66;100236.48;1624899;86;26630;-61
2021/06/10 15:49:29;;;;;;;2.65;1.20;;;;;;;28.84;25.59;100236.75;1615610;87;27448;-60
2021/06/10 15:51:56;;;;;;;4.97;1.45;;;;;;;28.80;25.89;100233.87;1578899;88;25821;-60
2021/06/10 15:54:23;;;;;;;2.72;1.55;;;;;;;28.80;25.94;100235.27;1550916;89;26432;-59
2021/06/10 15:56:49;;;;;;;1.30;1.20;;;;;;;28.80;26.04;100246.41;1552322;90;25927;-60
2021/06/10 15:59:16;;;;;;;3.95;1.50;;;;;;;28.78;25.90;100243.28;1560735;89;25905;-59
2021/06/10 16:01:42;;;;;;;3.65;1.40;;;;;;;28.76;25.90;100240.93;1554867;90;27347;-60
2021/06/10 16:04:10;;;;;;;1.52;1.12;;;;;;;28.77;26.13;100244.48;1547086;90;25894;-60
2021/06/10 16:06:36;;;;;;;1.77;1.67;;;;;;;28.74;26.16;100250.33;1533619;90;25960;-60
2021/06/10 16:09:04;;;;;;;2.10;1.50;;;;;;;28.74;26.21;100243.96;1604579;87;25840;-60
2021/06/10 16:11:31;;;;;;;1.70;1.60;;;;;;;28.71;26.32;100251.19;1599391;87;25904;-59
2021/06/10 16:13:57;;;;;;;9.18;1.70;;;;;;;28.72;26.39;100247.80;1598455;87;27353;-59
2021/06/10 16:16:24;;;;;;;1.80;1.25;;;;;;;28.68;26.42;100248.66;1588964;88;27171;-60
2021/06/10 16:18:50;;;;;;;2.77;1.60;;;;;;;28.66;26.47;100253.88;1595503;87;25729;-60
2021/06/10 16:21:17;;;;;;;2.85;1.95;;;;;;;28.61;26.48;100243.89;1615691;87;26001;-60
2021/06/10 16:23:43;;;;;;;1.75;1.30;;;;;;;28.52;26.46;100244.47;1595207;87;26532;-60
2021/06/10 16:26:11;;;;;;;2.25;1.50;;;;;;;28.43;26.48;100252.62;1615268;87;28296;-58
2021/06/10 16:28:38;;;;;;;5.97;1.60;;;;;;;28.37;26.73;100244.02;1606347;87;26968;-60
2021/06/10 16:31:05;;;;;;;2.50;1.70;;;;;;;28.33;26.81;100239.12;1600202;87;25871;-81
2021/06/10 16:33:34;;;;;;;3.30;1.40;;;;;;;28.29;26.85;100239.21;1608661;86;26674;-61
2021/06/10 16:36:00;;;;;;;2.62;1.30;;;;;;;28.27;26.92;100242.27;1634487;86;25760;-66
2021/06/10 16:38:27;;;;;;;1.87;1.57;;;;;;;28.23;26.95;100245.13;1628176;85;27393;-63
2021/06/10 16:40:55;;;;;;;3.60;1.60;;;;;;;28.14;26.95;100249.09;1605032;87;26517;-64
2021/06/10 16:43:23;;;;;;;3.67;1.70;;;;;;;28.06;26.94;100244.31;1598919;87;25867;-66
2021/06/10 16:45:50;;;;;;;2.33;1.60;;;;;;;27.91;27.13;100244.41;1628091;87;25844;-65
2021/06/10 16:48:16;;;;;;;8.83;3.75;;;;;;;27.76;27.29;100248.09;1614264;87;25868;-65
2021/06/10 16:50:43;;;;;;;7.72;3.65;;;;;;;27.60;27.46;100243.25;1589267;87;27397;-64
2021/06/10 16:53:15;;;;;;;4.58;3.17;;;;;;;27.46;27.67;100250.47;1608649;85;27244;-66
2021/06/10 16:55:38;;;;;;;2.83;1.90;;;;;;;27.31;27.88;100244.39;1603584;87;26617;-66
2021/06/10 16:58:04;;;;;;;2.98;1.90;;;;;;;27.16;28.07;100241.86;1592712;87;27811;-66
2021/06/10 17:00:35;;;;;;;2.95;1.55;;;;;;;27.06;28.36;100235.12;1584476;87;25800;-64
2021/06/10 17:05:29;;;;;;;4.40;1.82;;;;;;;26.86;28.72;100236.45;1584125;88;26183;-64
2021/06/10 17:07:58;;;;;;;4.15;2.50;;;;;;;26.76;28.93;100232.03;1594306;87;25826;-64
2021/06/10 17:10:28;;;;;;;6.35;3.15;;;;;;;26.64;29.10;100230.63;1605088;85;25864;-63